Time;durP1;ratioP1;P1;durP2;ratioP2;P2;SDS_P1;SDS_P2;PMS_P1;PMS_P2;Temp;Humidity;BMP_temperature;BMP_pressure;BME280_temperature;BME280_humidity;BME280_pressure;Samples;Min_cycle;Max_cycle;Signal;HPM_P1;HPM_P2
2021/08/26 00:00:31;;;;;;;9.77;4.47;;;16.80;76.00;;;;;;5075272;28;20025;-87
2021/08/26 00:05:48;;;;;;;8.38;4.60;;;16.80;76.10;;;;;;5076158;28;20027;-86
2021/08/26 00:08:16;;;;;;;7.32;4.38;;;16.70;76.10;;;;;;5075399;28;20032;-87
2021/08/26 00:10:42;;;;;;;8.77;4.68;;;16.70;76.70;;;;;;5076673;28;20041;-87
2021/08/26 00:13:09;;;;;;;10.15;4.60;;;16.60;77.40;;;;;;5078115;28;20026;-87
2021/08/26 00:15:35;;;;;;;10.77;4.65;;;16.60;76.90;;;;;;5077455;28;20017;-86
2021/08/26 00:18:02;;;;;;;8.02;4.72;;;16.60;77.60;;;;;;5077524;28;20021;-87
2021/08/26 00:20:27;;;;;;;8.52;4.80;;;16.50;77.30;;;;;;5077841;28;20027;-87
2021/08/26 00:22:53;;;;;;;10.20;4.97;;;16.60;77.30;;;;;;5078481;28;20029;-87
2021/08/26 00:25:19;;;;;;;7.38;4.60;;;16.50;77.40;;;;;;5077383;28;20028;-87
2021/08/26 00:27:44;;;;;;;11.35;5.03;;;16.50;78.10;;;;;;5079124;28;20404;-88
2021/08/26 00:30:10;;;;;;;7.57;4.50;;;16.50;77.70;;;;;;5079618;28;20081;-87
2021/08/26 00:32:36;;;;;;;7.22;4.80;;;16.40;77.90;;;;;;5076868;28;20044;-88
2021/08/26 00:35:02;;;;;;;8.93;4.72;;;16.50;78.60;;;;;;5075552;28;20811;-86
2021/08/26 00:37:27;;;;;;;12.90;5.00;;;16.40;78.10;;;;;;5076463;28;20612;-87
2021/08/26 00:39:53;;;;;;;9.15;5.13;;;16.50;77.90;;;;;;5075664;28;20044;-87
2021/08/26 00:42:19;;;;;;;10.60;4.90;;;16.40;77.60;;;;;;5076560;28;20062;-91
2021/08/26 00:44:44;;;;;;;8.55;4.57;;;16.40;78.20;;;;;;5076647;28;20017;-84
2021/08/26 00:47:10;;;;;;;8.02;4.60;;;16.40;77.70;;;;;;5073907;28;20036;-87
2021/08/26 00:49:36;;;;;;;8.10;4.80;;;16.40;77.60;;;;;;5077885;28;20493;-87
2021/08/26 00:52:01;;;;;;;10.45;4.78;;;16.40;78.40;;;;;;5077199;28;20401;-87
2021/08/26 00:54:28;;;;;;;8.75;5.20;;;16.30;78.10;;;;;;5074211;28;20027;-86
2021/08/26 00:56:55;;;;;;;9.27;5.05;;;16.30;78.90;;;;;;5076359;28;20115;-87
2021/08/26 00:59:21;;;;;;;9.88;5.18;;;16.30;77.90;;;;;;5075109;28;20025;-86
2021/08/26 01:02:00;;;;;;;8.40;4.68;;;16.30;78.90;;;;;;5073828;28;20032;-87
2021/08/26 01:04:25;;;;;;;8.25;5.00;;;16.30;78.40;;;;;;5072089;28;20031;-86
2021/08/26 01:07:11;;;;;;;9.02;4.93;;;16.30;78.60;;;;;;5074450;28;20521;-87
2021/08/26 01:09:50;;;;;;;7.97;5.10;;;16.30;78.10;;;;;;5073739;28;20048;-86
2021/08/26 01:12:24;;;;;;;9.35;4.80;;;16.20;78.00;;;;;;5072785;28;20024;-86
2021/08/26 01:14:55;;;;;;;9.98;6.10;;;16.20;78.40;;;;;;5075533;28;20063;-87
2021/08/26 01:17:22;;;;;;;8.07;4.65;;;16.10;79.00;;;;;;5076725;28;20070;-87
2021/08/26 01:19:53;;;;;;;10.52;4.60;;;16.20;79.20;;;;;;5074572;28;20216;-87
2021/08/26 01:22:23;;;;;;;10.10;5.20;;;16.10;78.90;;;;;;5074818;28;20054;-87
2021/08/26 01:24:54;;;;;;;11.68;5.57;;;16.10;79.20;;;;;;5076264;28;20060;-86
2021/08/26 01:27:21;;;;;;;6.28;4.60;;;16.10;79.80;;;;;;5079218;28;20167;-87
2021/08/26 01:29:48;;;;;;;6.80;4.60;;;16.10;79.50;;;;;;5080173;28;20040;-86
2021/08/26 01:32:25;;;;;;;8.82;5.18;;;16.10;78.90;;;;;;5080387;28;20021;-86
2021/08/26 01:34:52;;;;;;;6.40;4.55;;;16.20;78.50;;;;;;5079563;28;20033;-86
2021/08/26 01:37:19;;;;;;;7.68;4.65;;;16.20;78.60;;;;;;5078068;28;20020;-86
2021/08/26 01:39:52;;;;;;;8.57;5.28;;;16.20;78.20;;;;;;5078078;28;20041;-87
2021/08/26 01:42:25;;;;;;;10.27;4.57;;;16.20;78.40;;;;;;5078203;28;20031;-87
2021/08/26 01:44:53;;;;;;;8.43;4.97;;;16.10;78.30;;;;;;5076389;28;20464;-87
2021/08/26 01:47:20;;;;;;;10.73;5.32;;;16.10;78.70;;;;;;5078158;28;20032;-87
2021/08/26 01:49:51;;;;;;;9.07;5.00;;;16.10;80.20;;;;;;5076297;28;20041;-87
2021/08/26 01:52:18;;;;;;;8.80;4.90;;;16.10;79.40;;;;;;5078644;28;20111;-88
2021/08/26 01:54:55;;;;;;;7.65;5.32;;;16.10;79.40;;;;;;5077922;28;20028;-86
2021/08/26 01:57:25;;;;;;;8.07;5.15;;;16.10;78.70;;;;;;5075491;28;20021;-87
2021/08/26 01:59:51;;;;;;;8.77;5.20;;;16.00;79.30;;;;;;5073447;28;20025;-86
2021/08/26 02:02:17;;;;;;;7.03;4.90;;;16.10;78.90;;;;;;5075008;28;20120;-86
2021/08/26 02:04:43;;;;;;;10.57;5.00;;;16.00;79.10;;;;;;5077487;28;20477;-87
2021/08/26 02:07:09;;;;;;;8.70;4.53;;;16.00;79.30;;;;;;5077157;28;20021;-87
2021/08/26 02:09:35;;;;;;;10.15;5.15;;;16.00;79.40;;;;;;5074648;28;20036;-87
2021/08/26 02:12:01;;;;;;;9.30;5.63;;;16.00;79.40;;;;;;5074496;28;20021;-85
2021/08/26 02:14:26;;;;;;;7.90;5.30;;;16.00;79.20;;;;;;5079462;28;20086;-87
2021/08/26 02:16:52;;;;;;;10.15;5.13;;;16.00;79.20;;;;;;5077091;28;20103;-87
2021/08/26 02:19:18;;;;;;;7.88;5.30;;;16.00;79.60;;;;;;5073777;28;20044;-87
2021/08/26 02:21:44;;;;;;;9.15;5.45;;;16.00;78.70;;;;;;5076573;28;20020;-88
2021/08/26 02:24:09;;;;;;;7.82;5.05;;;15.90;79.10;;;;;;5076143;28;20039;-86
2021/08/26 02:26:35;;;;;;;10.20;5.53;;;15.90;79.40;;;;;;5074290;28;20046;-86
2021/08/26 02:29:01;;;;;;;9.82;5.30;;;15.90;79.30;;;;;;5077175;28;20032;-86
2021/08/26 02:31:28;;;;;;;7.10;5.13;;;15.90;79.50;;;;;;5076953;28;20031;-87
2021/08/26 02:33:54;;;;;;;11.95;5.53;;;15.80;79.20;;;;;;5074600;28;20043;-86
2021/08/26 02:36:19;;;;;;;9.35;6.05;;;15.80;80.50;;;;;;5076944;28;20124;-87
2021/08/26 02:38:45;;;;;;;6.55;5.18;;;15.80;78.90;;;;;;5075878;28;20548;-86
2021/08/26 02:41:11;;;;;;;8.93;5.25;;;15.70;79.30;;;;;;5076645;28;20444;-87
2021/08/26 02:43:36;;;;;;;8.25;4.82;;;15.70;79.20;;;;;;5075991;28;20029;-87
2021/08/26 02:46:02;;;;;;;10.13;5.40;;;15.80;79.90;;;;;;5069338;28;20028;-86
2021/08/26 02:48:28;;;;;;;7.80;5.25;;;15.70;79.80;;;;;;5074037;28;20028;-87
2021/08/26 02:50:53;;;;;;;9.57;5.72;;;15.70;79.40;;;;;;5073409;28;20040;-87
2021/08/26 02:53:19;;;;;;;8.65;5.15;;;15.60;80.10;;;;;;5073831;28;20016;-87
2021/08/26 02:55:45;;;;;;;7.57;5.70;;;15.60;79.10;;;;;;5070433;28;20576;-87
2021/08/26 02:58:10;;;;;;;8.80;5.38;;;15.60;79.90;;;;;;5073062;28;20033;-87
2021/08/26 03:00:36;;;;;;;9.27;5.75;;;15.60;80.20;;;;;;5067400;28;20025;-88
2021/08/26 03:03:02;;;;;;;11.43;6.45;;;15.50;80.60;;;;;;5070844;28;20032;-87
2021/08/26 03:05:27;;;;;;;8.57;6.07;;;15.40;80.80;;;;;;5074048;28;20024;-88
2021/08/26 03:07:56;;;;;;;7.65;6.20;;;15.40;80.50;;;;;;5072069;28;20495;-87
2021/08/26 03:10:22;;;;;;;8.55;5.97;;;15.40;81.50;;;;;;5072640;28;20021;-86
2021/08/26 03:12:48;;;;;;;9.20;6.25;;;15.40;80.90;;;;;;5070056;28;20025;-85
2021/08/26 03:15:13;;;;;;;10.20;6.50;;;15.30;81.40;;;;;;5072476;28;20040;-85
2021/08/26 03:17:39;;;;;;;9.45;5.90;;;15.40;80.60;;;;;;5071646;28;20112;-85
2021/08/26 03:20:05;;;;;;;10.80;6.43;;;15.30;80.70;;;;;;5073185;28;20107;-85
2021/08/26 03:22:31;;;;;;;10.48;6.20;;;15.30;81.40;;;;;;5069648;28;20033;-87
2021/08/26 03:24:56;;;;;;;8.88;6.28;;;15.30;81.30;;;;;;5072064;28;20566;-87
2021/08/26 03:27:22;;;;;;;8.63;6.30;;;15.20;81.20;;;;;;5070503;28;20032;-87
2021/08/26 03:29:48;;;;;;;9.10;6.03;;;15.20;81.00;;;;;;5071473;28;20036;-88
2021/08/26 03:32:13;;;;;;;10.38;6.10;;;15.20;81.40;;;;;;5073214;28;20469;-87
2021/08/26 03:34:39;;;;;;;10.73;6.53;;;15.20;81.60;;;;;;5070148;28;20078;-87
2021/08/26 03:37:04;;;;;;;8.48;6.00;;;15.30;81.10;;;;;;5072309;28;20107;-87
2021/08/26 03:39:30;;;;;;;10.35;6.22;;;15.20;81.10;;;;;;5071712;28;20051;-86
2021/08/26 03:41:56;;;;;;;7.40;5.95;;;15.30;80.90;;;;;;5071078;28;20026;-87
2021/08/26 03:44:21;;;;;;;7.72;6.00;;;15.20;81.60;;;;;;5072575;28;20024;-87
2021/08/26 03:46:47;;;;;;;10.60;6.88;;;15.20;81.90;;;;;;5074320;28;20028;-87
2021/08/26 03:49:12;;;;;;;10.77;6.72;;;15.20;83.20;;;;;;5072097;28;20075;-87
2021/08/26 03:51:38;;;;;;;8.45;7.05;;;15.10;82.40;;;;;;5072811;28;20020;-87
2021/08/26 03:54:04;;;;;;;11.05;6.78;;;15.00;82.90;;;;;;5070732;28;20078;-87
2021/08/26 03:56:30;;;;;;;10.27;6.38;;;15.00;82.80;;;;;;5072326;28;20462;-86
2021/08/26 03:58:55;;;;;;;11.43;7.20;;;15.00;84.50;;;;;;5072434;28;20400;-87
2021/08/26 04:01:21;;;;;;;10.30;6.90;;;15.00;82.80;;;;;;5069816;28;20104;-87
2021/08/26 04:03:46;;;;;;;10.60;7.20;;;15.00;82.90;;;;;;5071409;28;20078;-87
2021/08/26 04:06:12;;;;;;;8.77;6.53;;;14.90;82.40;;;;;;5070219;28;20117;-87
2021/08/26 04:08:38;;;;;;;10.15;6.70;;;14.90;82.60;;;;;;5071210;28;20020;-87
2021/08/26 04:11:03;;;;;;;9.75;6.47;;;15.00;82.80;;;;;;5066187;28;20029;-87
2021/08/26 04:13:29;;;;;;;10.27;6.57;;;14.90;83.20;;;;;;5065890;28;20028;-87
2021/08/26 04:15:54;;;;;;;8.98;6.50;;;14.90;83.90;;;;;;5065689;28;20037;-88
2021/08/26 04:18:20;;;;;;;9.75;6.57;;;14.90;82.60;;;;;;5070861;28;20025;-86
2021/08/26 04:20:46;;;;;;;10.40;6.57;;;15.00;83.00;;;;;;5071387;28;20033;-87
2021/08/26 04:23:12;;;;;;;8.05;6.25;;;15.00;82.70;;;;;;5071697;28;20075;-87
2021/08/26 04:25:38;;;;;;;9.00;6.30;;;15.00;82.10;;;;;;5068954;28;20512;-88
2021/08/26 04:28:05;;;;;;;7.68;6.10;;;15.00;82.60;;;;;;5071620;28;20032;-88
2021/08/26 04:30:31;;;;;;;11.20;7.10;;;15.00;83.60;;;;;;5071675;28;20024;-88
2021/08/26 04:32:57;;;;;;;8.77;6.68;;;15.00;83.60;;;;;;5070310;28;20044;-89
2021/08/26 04:35:22;;;;;;;11.75;7.63;;;14.90;82.60;;;;;;5070565;28;20393;-87
2021/08/26 04:37:48;;;;;;;10.38;6.97;;;14.90;82.40;;;;;;5070938;28;20027;-87
2021/08/26 04:40:14;;;;;;;11.05;7.20;;;14.80;82.70;;;;;;5070655;28;20139;-87
2021/08/26 04:42:39;;;;;;;11.57;7.95;;;14.80;84.10;;;;;;5069992;28;20047;-86
2021/08/26 04:45:05;;;;;;;10.55;8.05;;;14.80;83.90;;;;;;5068656;28;20021;-87
2021/08/26 04:47:31;;;;;;;10.10;6.30;;;14.70;83.10;;;;;;5069664;28;20446;-86
2021/08/26 04:49:56;;;;;;;10.60;7.07;;;14.80;83.80;;;;;;5071459;28;20048;-87
2021/08/26 04:52:22;;;;;;;9.93;7.28;;;14.70;84.10;;;;;;5068110;28;20024;-87
2021/08/26 04:54:47;;;;;;;11.77;7.65;;;14.70;83.70;;;;;;5068083;28;20382;-87
2021/08/26 04:57:13;;;;;;;8.63;7.00;;;14.70;83.50;;;;;;5063588;28;20107;-86
2021/08/26 04:59:39;;;;;;;12.35;6.97;;;14.70;83.50;;;;;;5069860;28;20436;-87
2021/08/26 05:02:04;;;;;;;8.82;6.32;;;14.70;82.90;;;;;;5074241;28;20052;-86
2021/08/26 05:04:30;;;;;;;11.00;7.43;;;14.70;85.00;;;;;;5074845;28;20404;-86
2021/08/26 05:06:55;;;;;;;9.05;7.28;;;14.70;84.00;;;;;;5071939;28;20032;-86
2021/08/26 05:09:21;;;;;;;12.57;7.10;;;14.60;84.00;;;;;;5075372;28;20037;-88
2021/08/26 05:11:47;;;;;;;10.20;7.25;;;14.70;84.00;;;;;;5074895;28;20047;-88
2021/08/26 05:14:13;;;;;;;10.13;7.40;;;14.60;83.60;;;;;;5075362;28;20047;-86
2021/08/26 05:16:39;;;;;;;11.68;7.65;;;14.50;83.60;;;;;;5074518;28;20033;-90
2021/08/26 05:19:05;;;;;;;8.43;6.80;;;14.50;84.50;;;;;;5069889;28;20024;-86
2021/08/26 05:21:33;;;;;;;11.23;7.68;;;14.50;83.80;;;;;;5072141;28;20484;-91
2021/08/26 05:23:59;;;;;;;10.38;7.65;;;14.50;84.00;;;;;;5074021;28;20420;-87
2021/08/26 05:26:24;;;;;;;11.07;7.07;;;14.50;83.60;;;;;;5074465;28;20021;-87
2021/08/26 05:29:02;;;;;;;9.35;6.85;;;14.40;84.40;;;;;;5055845;28;20464;-88
2021/08/26 05:31:28;;;;;;;10.93;7.15;;;14.50;84.00;;;;;;5070298;28;20024;-87
2021/08/26 05:33:55;;;;;;;10.48;6.38;;;14.50;84.80;;;;;;5071078;28;20036;-87
2021/08/26 05:36:20;;;;;;;9.80;7.45;;;14.60;84.40;;;;;;5072415;28;20032;-87
2021/08/26 05:38:46;;;;;;;8.95;7.18;;;14.60;83.60;;;;;;5072278;28;20135;-86
2021/08/26 05:41:13;;;;;;;11.75;6.65;;;14.60;83.70;;;;;;5074261;28;20029;-87
2021/08/26 05:43:39;;;;;;;12.50;6.93;;;14.70;84.00;;;;;;5074066;28;20032;-86
2021/08/26 05:46:05;;;;;;;11.60;6.57;;;14.70;83.30;;;;;;5073547;28;20028;-86
2021/08/26 05:48:33;;;;;;;9.48;6.97;;;14.70;83.70;;;;;;5070807;28;20461;-87
2021/08/26 05:50:59;;;;;;;9.93;7.05;;;14.70;83.60;;;;;;5072982;28;20016;-88
2021/08/26 05:53:24;;;;;;;9.90;5.93;;;14.60;83.10;;;;;;5072919;28;20056;-86
2021/08/26 05:55:50;;;;;;;10.82;6.35;;;14.70;83.70;;;;;;5071909;28;20064;-89
2021/08/26 05:58:17;;;;;;;9.40;6.20;;;14.70;83.20;;;;;;5073938;28;20029;-87
2021/08/26 06:00:42;;;;;;;9.85;6.38;;;14.70;83.60;;;;;;5070416;28;20025;-88
2021/08/26 06:03:08;;;;;;;9.00;6.57;;;14.70;83.10;;;;;;5072266;28;20489;-86
2021/08/26 06:05:34;;;;;;;8.32;6.30;;;14.70;83.60;;;;;;5073245;28;20024;-88
2021/08/26 06:07:59;;;;;;;8.98;6.63;;;14.70;84.10;;;;;;5074416;28;20027;-89
2021/08/26 06:10:25;;;;;;;10.75;6.40;;;14.70;83.60;;;;;;5073621;28;20554;-89
2021/08/26 06:12:51;;;;;;;9.13;6.18;;;14.80;83.40;;;;;;5071831;28;20491;-89
2021/08/26 06:15:17;;;;;;;10.25;6.35;;;14.70;83.60;;;;;;5074223;28;20027;-87
2021/08/26 06:17:42;;;;;;;8.52;5.95;;;14.70;83.80;;;;;;5073563;28;20389;-87
2021/08/26 06:20:11;;;;;;;9.15;5.82;;;14.70;83.70;;;;;;5072427;28;20077;-87
2021/08/26 06:22:38;;;;;;;9.32;5.80;;;14.80;83.70;;;;;;5072102;28;20109;-88
2021/08/26 06:25:05;;;;;;;9.63;5.13;;;14.80;83.90;;;;;;5072648;28;20109;-87
2021/08/26 06:27:31;;;;;;;8.60;6.10;;;14.80;83.60;;;;;;5072757;28;20054;-88
2021/08/26 06:29:57;;;;;;;9.85;6.38;;;14.70;85.10;;;;;;5065351;28;20516;-87
2021/08/26 06:32:23;;;;;;;9.00;6.07;;;14.70;84.00;;;;;;5072056;28;20099;-87
2021/08/26 06:34:48;;;;;;;7.57;5.65;;;14.70;84.20;;;;;;5066326;28;20043;-87
2021/08/26 06:37:14;;;;;;;7.95;5.80;;;14.80;84.10;;;;;;5063960;28;20090;-87
2021/08/26 06:39:40;;;;;;;9.82;6.45;;;14.90;84.30;;;;;;5058541;28;20768;-87
2021/08/26 06:42:05;;;;;;;7.93;5.30;;;14.80;84.30;;;;;;5056896;28;20029;-90
2021/08/26 06:44:31;;;;;;;8.25;5.72;;;14.80;84.00;;;;;;5071749;28;20111;-87
2021/08/26 06:46:56;;;;;;;9.32;6.13;;;14.90;84.00;;;;;;5073589;28;20067;-88
2021/08/26 06:49:23;;;;;;;10.45;6.85;;;15.00;84.10;;;;;;5069722;28;20400;-87
2021/08/26 06:51:49;;;;;;;8.40;5.78;;;15.00;84.90;;;;;;5074545;28;20119;-89
2021/08/26 06:54:15;;;;;;;10.05;6.47;;;15.00;84.50;;;;;;5073865;28;20400;-89
2021/08/26 06:56:41;;;;;;;8.98;6.15;;;15.10;84.20;;;;;;5072508;28;20036;-88
2021/08/26 06:59:06;;;;;;;8.18;6.43;;;15.10;84.20;;;;;;5072717;28;20116;-88
2021/08/26 07:01:32;;;;;;;10.25;6.10;;;15.10;84.40;;;;;;5072849;28;20035;-88
2021/08/26 07:03:58;;;;;;;8.30;5.47;;;15.10;83.90;;;;;;5072845;28;20033;-89
2021/08/26 07:06:25;;;;;;;9.85;5.93;;;15.20;84.20;;;;;;5073381;28;20074;-89
2021/08/26 07:08:51;;;;;;;9.20;5.82;;;15.20;84.00;;;;;;5071463;28;20124;-90
2021/08/26 07:11:17;;;;;;;7.55;5.10;;;15.20;83.90;;;;;;5071372;28;20025;-89
2021/08/26 07:13:43;;;;;;;7.65;5.63;;;15.30;84.20;;;;;;5072048;28;20036;-89
2021/08/26 07:16:08;;;;;;;9.40;5.70;;;15.40;84.40;;;;;;5070398;28;20035;-86
2021/08/26 07:18:34;;;;;;;7.38;6.00;;;15.40;84.40;;;;;;5075880;28;20104;-79
2021/08/26 07:21:00;;;;;;;8.15;5.63;;;15.40;84.40;;;;;;5072409;28;20512;-78
2021/08/26 07:23:25;;;;;;;6.10;5.05;;;15.50;84.50;;;;;;5071683;28;20469;-77
2021/08/26 07:25:51;;;;;;;7.05;5.07;;;15.60;84.20;;;;;;5065692;28;20481;-78
2021/08/26 07:28:17;;;;;;;7.50;5.28;;;15.60;84.10;;;;;;5069714;28;20032;-78
2021/08/26 07:30:42;;;;;;;6.28;4.85;;;15.70;83.80;;;;;;5071669;28;20032;-78
2021/08/26 07:33:08;;;;;;;7.30;5.30;;;15.70;83.60;;;;;;5069116;28;20024;-78
2021/08/26 07:35:34;;;;;;;8.35;5.63;;;15.80;84.40;;;;;;5070960;28;20035;-78
2021/08/26 07:38:00;;;;;;;7.22;5.00;;;15.80;83.00;;;;;;5072587;28;20650;-87
2021/08/26 07:40:26;;;;;;;6.90;5.07;;;15.80;83.40;;;;;;5064709;28;20075;-88
2021/08/26 07:42:52;;;;;;;6.30;4.60;;;15.90;83.40;;;;;;5071711;28;20433;-89
2021/08/26 07:45:17;;;;;;;6.60;4.65;;;15.90;83.50;;;;;;5069474;28;20123;-86
2021/08/26 07:47:43;;;;;;;9.90;5.18;;;16.00;83.40;;;;;;5071287;28;20100;-82
2021/08/26 07:50:10;;;;;;;9.73;5.57;;;16.00;83.30;;;;;;5072332;28;20397;-79
2021/08/26 07:52:36;;;;;;;5.30;4.72;;;16.00;83.10;;;;;;5071608;28;20473;-78
2021/08/26 07:55:02;;;;;;;7.38;5.30;;;16.00;82.70;;;;;;5071983;28;20039;-78
2021/08/26 07:57:32;;;;;;;6.75;5.07;;;16.10;82.60;;;;;;5069816;28;20025;-80
2021/08/26 07:59:58;;;;;;;8.73;5.40;;;16.10;82.10;;;;;;5063947;28;20055;-82
2021/08/26 08:02:24;;;;;;;7.95;5.07;;;16.10;82.00;;;;;;5068074;28;20063;-82
2021/08/26 08:04:49;;;;;;;8.00;4.40;;;16.20;82.90;;;;;;5067737;28;20365;-82
2021/08/26 08:07:15;;;;;;;4.85;4.35;;;16.30;82.20;;;;;;5071935;28;20028;-82
2021/08/26 08:09:40;;;;;;;7.07;5.05;;;16.40;82.30;;;;;;5069379;28;20123;-81
2021/08/26 08:12:06;;;;;;;5.57;4.65;;;16.40;81.60;;;;;;5071847;28;20063;-80
2021/08/26 08:14:34;;;;;;;7.45;4.72;;;16.40;81.10;;;;;;5071416;28;20035;-81
2021/08/26 08:17:00;;;;;;;5.72;4.97;;;16.40;81.10;;;;;;5072095;28;20036;-82
2021/08/26 08:19:26;;;;;;;7.30;4.78;;;16.40;80.90;;;;;;5070070;28;20029;-87
2021/08/26 08:21:52;;;;;;;6.30;4.68;;;16.40;80.70;;;;;;5071314;28;20024;-84
2021/08/26 08:24:18;;;;;;;4.72;4.22;;;16.40;80.60;;;;;;5071251;28;20028;-84
2021/08/26 08:26:44;;;;;;;7.25;4.70;;;16.40;80.50;;;;;;5071242;28;20024;-84
2021/08/26 08:29:10;;;;;;;5.85;4.20;;;16.40;80.60;;;;;;5071950;28;20055;-86
2021/08/26 08:31:35;;;;;;;4.90;3.72;;;16.50;81.00;;;;;;5068615;28;20097;-86
2021/08/26 08:34:01;;;;;;;3.95;3.55;;;16.60;81.10;;;;;;5068463;28;20064;-85
2021/08/26 08:36:27;;;;;;;5.70;4.35;;;16.70;80.70;;;;;;5074408;28;20048;-84
2021/08/26 08:38:53;;;;;;;5.60;3.78;;;16.70;80.60;;;;;;5075073;28;20403;-85
2021/08/26 08:41:20;;;;;;;4.97;3.50;;;16.80;80.50;;;;;;5075750;28;20023;-84
2021/08/26 08:43:46;;;;;;;4.15;3.50;;;16.80;80.30;;;;;;5074789;28;20408;-84
2021/08/26 08:46:13;;;;;;;3.25;2.95;;;16.90;80.80;;;;;;5075005;28;20020;-84
2021/08/26 08:48:41;;;;;;;4.32;3.33;;;17.00;80.40;;;;;;5074846;28;20040;-84
2021/08/26 08:51:08;;;;;;;5.00;2.72;;;17.00;78.80;;;;;;5075124;28;20422;-84
2021/08/26 08:53:34;;;;;;;4.38;2.28;;;17.10;78.90;;;;;;5072450;28;20473;-84
2021/08/26 08:56:03;;;;;;;3.45;2.45;;;17.10;79.30;;;;;;5074331;28;20078;-83
2021/08/26 08:58:29;;;;;;;4.72;3.10;;;17.20;78.80;;;;;;5074456;28;20032;-82
2021/08/26 09:00:54;;;;;;;3.33;2.80;;;17.20;79.40;;;;;;5074639;28;20040;-82
2021/08/26 09:03:20;;;;;;;2.60;2.38;;;17.20;77.80;;;;;;5074566;28;20039;-82
2021/08/26 09:05:59;;;;;;;4.32;2.38;;;17.30;78.50;;;;;;5073865;28;20081;-83
2021/08/26 09:08:27;;;;;;;3.00;2.47;;;17.30;78.30;;;;;;5072809;28;20051;-81
2021/08/26 09:11:07;;;;;;;3.85;2.20;;;17.40;77.30;;;;;;5073706;28;20044;-82
2021/08/26 09:13:34;;;;;;;4.03;2.10;;;17.40;77.40;;;;;;5074542;28;20025;-82
2021/08/26 09:16:01;;;;;;;3.40;2.30;;;17.60;77.00;;;;;;5074865;28;20032;-82
2021/08/26 09:18:26;;;;;;;3.00;2.30;;;17.50;76.80;;;;;;5073310;28;20016;-82
2021/08/26 09:21:05;;;;;;;3.22;2.20;;;17.60;77.00;;;;;;5074801;28;20028;-82
2021/08/26 09:23:51;;;;;;;5.57;2.15;;;17.60;76.50;;;;;;5086861;28;20077;-81
2021/08/26 09:26:25;;;;;;;2.55;1.80;;;17.60;76.20;;;;;;5068360;28;20024;-82
2021/08/26 09:28:53;;;;;;;7.20;1.77;;;17.70;76.60;;;;;;5074152;28;20085;-82
2021/08/26 09:31:24;;;;;;;5.25;1.90;;;17.80;75.80;;;;;;5073657;28;20070;-83
2021/08/26 09:33:51;;;;;;;2.05;1.67;;;17.80;75.20;;;;;;5030136;28;20444;-84
2021/08/26 09:36:20;;;;;;;3.47;2.00;;;17.90;74.10;;;;;;5072183;28;20033;-82
2021/08/26 09:38:51;;;;;;;4.30;2.22;;;17.90;73.80;;;;;;5073179;28;20071;-83
2021/08/26 09:41:41;;;;;;;3.83;1.85;;;17.90;74.10;;;;;;5072472;28;20056;-81
2021/08/26 09:44:15;;;;;;;3.47;2.10;;;17.90;74.50;;;;;;5072395;28;20519;-81
2021/08/26 09:46:42;;;;;;;5.40;1.88;;;18.00;74.00;;;;;;5072051;28;20099;-87
2021/08/26 09:49:10;;;;;;;2.65;1.83;;;18.00;73.20;;;;;;5073076;28;20063;-84
2021/08/26 09:51:37;;;;;;;3.85;2.20;;;18.10;73.40;;;;;;5071555;28;20021;-85
2021/08/26 09:54:03;;;;;;;2.13;1.50;;;18.20;73.30;;;;;;5062750;28;20736;-83
2021/08/26 09:56:40;;;;;;;2.60;1.65;;;18.20;73.90;;;;;;5072933;28;20546;-83
2021/08/26 09:59:06;;;;;;;4.63;2.10;;;18.30;73.70;;;;;;5072064;28;20050;-84
2021/08/26 10:01:35;;;;;;;2.28;1.50;;;18.40;72.70;;;;;;5072813;28;20104;-83
2021/08/26 10:04:00;;;;;;;3.22;1.77;;;18.40;73.60;;;;;;5070426;28;20033;-83
2021/08/26 10:06:26;;;;;;;2.65;1.70;;;18.50;73.30;;;;;;5067341;28;20441;-83
2021/08/26 10:08:52;;;;;;;4.13;1.70;;;18.60;73.10;;;;;;5070817;28;20028;-82
2021/08/26 10:11:20;;;;;;;3.25;1.58;;;18.70;73.10;;;;;;5073399;28;20111;-81
2021/08/26 10:13:48;;;;;;;3.90;1.80;;;18.80;73.00;;;;;;5072758;28;20036;-83
2021/08/26 10:16:14;;;;;;;3.92;1.88;;;18.80;71.10;;;;;;5065520;28;20500;-85
2021/08/26 10:18:40;;;;;;;3.83;1.52;;;18.90;71.50;;;;;;5071775;28;20032;-86
2021/08/26 10:21:08;;;;;;;3.83;1.83;;;19.00;72.10;;;;;;5070915;28;20028;-85
2021/08/26 10:23:41;;;;;;;3.83;1.88;;;19.10;71.00;;;;;;5073823;28;20481;-83
2021/08/26 10:26:13;;;;;;;3.53;1.63;;;19.10;70.60;;;;;;5072250;28;20090;-84
2021/08/26 10:28:41;;;;;;;3.30;1.67;;;19.10;70.90;;;;;;5072995;28;20043;-85
2021/08/26 10:31:30;;;;;;;3.17;1.77;;;19.10;71.20;;;;;;5071007;28;20024;-87
2021/08/26 10:34:13;;;;;;;2.92;1.48;;;19.20;71.30;;;;;;5073127;28;20443;-86
2021/08/26 10:36:59;;;;;;;2.17;1.70;;;19.10;69.90;;;;;;5073268;28;20078;-86
2021/08/26 10:39:32;;;;;;;3.72;1.65;;;19.10;69.50;;;;;;5072568;28;20084;-86
2021/08/26 10:42:18;;;;;;;2.03;1.30;;;19.10;69.60;;;;;;5057470;28;20086;-83
2021/08/26 10:45:12;;;;;;;2.83;1.35;;;19.10;69.40;;;;;;5069809;28;20074;-84
2021/08/26 10:47:47;;;;;;;2.30;1.50;;;19.20;70.10;;;;;;5070700;28;20103;-84
2021/08/26 10:50:20;;;;;;;3.58;1.63;;;19.20;68.50;;;;;;5071877;28;20029;-85
2021/08/26 10:52:58;;;;;;;3.88;1.60;;;19.30;68.40;;;;;;5072831;28;20052;-86
2021/08/26 10:56:00;;;;;;;3.70;1.83;;;19.50;69.40;;;;;;5074644;28;20028;-88
2021/08/26 10:58:26;;;;;;;3.28;1.70;;;19.60;69.10;;;;;;5062204;28;20040;-90
2021/08/26 11:01:00;;;;;;;2.90;1.85;;;19.80;69.30;;;;;;5070671;28;20027;-83
2021/08/26 11:03:35;;;;;;;4.10;1.80;;;19.90;68.60;;;;;;5069776;28;20497;-83
2021/08/26 11:06:22;;;;;;;3.53;1.80;;;20.00;67.90;;;;;;5071812;28;20020;-80
2021/08/26 11:08:59;;;;;;;2.15;1.60;;;19.90;67.30;;;;;;5073333;28;20040;-85
2021/08/26 11:11:33;;;;;;;3.00;1.70;;;20.10;67.20;;;;;;5066493;28;20036;-86
2021/08/26 11:14:02;;;;;;;5.32;1.90;;;20.10;67.30;;;;;;5070225;28;20094;-85
2021/08/26 11:16:27;;;;;;;3.90;1.88;;;20.00;66.40;;;;;;5072089;28;20108;-89
2021/08/26 11:18:54;;;;;;;2.63;2.17;;;20.00;66.90;;;;;;5072295;28;20477;-92
2021/08/26 11:24:08;;;;;;;4.40;2.40;;;20.00;67.90;;;;;;5071030;28;20499;-91
2021/08/26 11:26:43;;;;;;;3.60;2.67;;;20.00;66.30;;;;;;5069001;28;20480;-88
2021/08/26 11:29:33;;;;;;;3.83;2.17;;;20.10;67.50;;;;;;5070661;28;20032;-92
2021/08/26 11:32:02;;;;;;;4.28;2.60;;;20.30;67.50;;;;;;5061675;28;20493;-89
2021/08/26 11:34:41;;;;;;;3.20;2.40;;;20.30;66.20;;;;;;5068849;28;20055;-87
2021/08/26 11:37:30;;;;;;;3.25;2.63;;;20.30;66.60;;;;;;5072427;28;20401;-89
2021/08/26 11:40:00;;;;;;;4.15;2.22;;;20.30;66.90;;;;;;5071092;28;20040;-89
2021/08/26 11:42:27;;;;;;;4.80;2.33;;;20.30;65.90;;;;;;5062696;28;20494;-88
2021/08/26 11:45:05;;;;;;;3.58;2.65;;;20.20;66.10;;;;;;5060526;28;20078;-88
2021/08/26 11:47:32;;;;;;;4.22;2.40;;;20.30;66.60;;;;;;5083244;28;20112;-87
2021/08/26 11:50:13;;;;;;;2.88;2.15;;;20.30;66.50;;;;;;5055732;28;20048;-85
2021/08/26 11:52:40;;;;;;;3.10;2.22;;;20.30;66.80;;;;;;5071277;28;20025;-89
2021/08/26 11:55:06;;;;;;;3.88;2.20;;;20.20;65.30;;;;;;5064702;28;20028;-88
2021/08/26 11:57:32;;;;;;;3.88;1.92;;;20.30;66.00;;;;;;5069268;28;20021;-91
2021/08/26 12:00:06;;;;;;;4.43;2.35;;;20.40;66.30;;;;;;5061568;28;20378;-83
2021/08/26 12:02:36;;;;;;;2.17;1.65;;;20.30;66.60;;;;;;5066446;28;20096;-85
2021/08/26 12:05:02;;;;;;;4.88;2.45;;;20.60;66.60;;;;;;5067738;28;20080;-87
2021/08/26 12:07:40;;;;;;;4.53;2.80;;;20.40;64.60;;;;;;5068816;28;20032;-92
2021/08/26 12:10:29;;;;;;;4.80;2.67;;;20.10;66.40;;;;;;5071866;28;20033;-94
2021/08/26 12:13:06;;;;;;;3.75;2.38;;;20.30;67.10;;;;;;5070058;28;20055;-90
2021/08/26 12:15:36;;;;;;;4.25;2.13;;;20.30;66.20;;;;;;5069385;28;20508;-94
2021/08/26 12:18:16;;;;;;;4.22;2.80;;;20.40;66.30;;;;;;5073061;28;20017;-91
2021/08/26 12:20:47;;;;;;;5.32;2.67;;;20.30;65.10;;;;;;5072425;28;20051;-90
2021/08/26 12:23:18;;;;;;;3.40;2.33;;;20.10;65.90;;;;;;5073666;28;20107;-93
2021/08/26 12:25:44;;;;;;;4.43;2.58;;;20.10;66.40;;;;;;5072459;28;20032;-92
2021/08/26 12:28:11;;;;;;;4.20;2.58;;;20.10;66.50;;;;;;5074133;28;20166;-95
2021/08/26 12:30:39;;;;;;;3.95;3.10;;;20.30;66.80;;;;;;5073236;28;20517;-95
2021/08/26 12:33:18;;;;;;;5.72;3.20;;;20.20;65.70;;;;;;5072768;28;20021;-92
2021/08/26 12:35:57;;;;;;;4.10;2.90;;;20.00;66.40;;;;;;5068635;28;20025;-88
2021/08/26 12:38:39;;;;;;;4.25;2.80;;;20.00;66.60;;;;;;5072641;28;20028;-89
2021/08/26 12:41:15;;;;;;;4.18;2.92;;;19.90;66.80;;;;;;5071962;28;20055;-95
2021/08/26 12:43:40;;;;;;;5.32;3.30;;;20.10;66.90;;;;;;5073569;28;20115;-91
2021/08/26 12:46:10;;;;;;;4.75;3.38;;;19.90;66.00;;;;;;5070824;28;20166;-94
2021/08/26 12:48:38;;;;;;;5.38;3.05;;;19.90;66.80;;;;;;5074053;28;20039;-94
2021/08/26 12:51:19;;;;;;;5.03;3.00;;;20.00;66.80;;;;;;5071747;28;20121;-90
2021/08/26 12:54:04;;;;;;;4.45;3.22;;;20.10;66.80;;;;;;5071290;28;20031;-89
2021/08/26 12:56:42;;;;;;;4.78;3.58;;;20.00;66.80;;;;;;5072301;28;20024;-92